TVS52M LKPR-BIKF
Flight info
| Callsign | TVS52M |
|---|---|
| Flight time | N/A |
| Altitude | 34000 |
| Route | VENOX4E VENOX DCT DEKOV Y621 ESLOR M748 BOLBO DCT GARLU DCT KUGAL DCT VAXIT/N0441F360 DCT ARTEX DCT LAMRO DCT BAMRA DCT DEVBI DCT RATSU/M077F360 DCT ALDAN DCT ASRUN ASRUN4N |
| Aircraft | A320/M-SDE3FGHIRWY/LB1 |
Departure
| Time | 2026-05-01 12:07 |
|---|---|
| Airport | Václav Havel Airport Prague (LKPR) |
Arrival
| Time | N/A |
|---|---|
| Airport | Keflavik International Airport (BIKF) |
| Time | Latitude | Longitude | Altitude | Speed | Heading |
|---|---|---|---|---|---|
| 2026-05-01 11:18 | 50.10487 | 14.26483 | 1170 ft | 0 kts | 34° |
| 2026-05-01 11:19 | 50.10485 | 14.26480 | 1171 ft | 0 kts | 34° |
| 2026-05-01 11:55 | 50.10479 | 14.26474 | 1174 ft | 4 kts | 36° |
| 2026-05-01 11:56 | 50.10460 | 14.26447 | 1169 ft | 4 kts | 64° |
| 2026-05-01 11:56 | 50.10458 | 14.26420 | 1171 ft | 1 kts | 124° |
| 2026-05-01 12:00 | 50.10447 | 14.26446 | 1170 ft | 10 kts | 124° |
| 2026-05-01 12:01 | 50.10405 | 14.26541 | 1172 ft | 10 kts | 124° |
| 2026-05-01 12:01 | 50.10370 | 14.26617 | 1172 ft | 7 kts | 135° |
| 2026-05-01 12:01 | 50.10332 | 14.26605 | 1174 ft | 5 kts | 207° |
| 2026-05-01 12:01 | 50.10305 | 14.26580 | 1170 ft | 8 kts | 214° |
| 2026-05-01 12:02 | 50.10237 | 14.26530 | 1176 ft | 9 kts | 167° |
| 2026-05-01 12:02 | 50.10201 | 14.26587 | 1175 ft | 6 kts | 124° |
| 2026-05-01 12:02 | 50.10169 | 14.26657 | 1176 ft | 16 kts | 127° |
| 2026-05-01 12:02 | 50.10069 | 14.26868 | 1189 ft | 27 kts | 127° |
| 2026-05-01 12:03 | 50.09966 | 14.27081 | 1198 ft | 23 kts | 128° |
| 2026-05-01 12:03 | 50.09872 | 14.27272 | 1202 ft | 22 kts | 126° |
| 2026-05-01 12:03 | 50.09770 | 14.27434 | 1205 ft | 20 kts | 136° |
| 2026-05-01 12:03 | 50.09671 | 14.27589 | 1207 ft | 20 kts | 133° |
| 2026-05-01 12:04 | 50.09579 | 14.27731 | 1211 ft | 18 kts | 134° |
| 2026-05-01 12:04 | 50.09492 | 14.27867 | 1214 ft | 16 kts | 135° |
| 2026-05-01 12:04 | 50.09419 | 14.27977 | 1215 ft | 11 kts | 135° |
| 2026-05-01 12:04 | 50.09329 | 14.28114 | 1215 ft | 27 kts | 134° |
| 2026-05-01 12:05 | 50.09247 | 14.28242 | 1212 ft | 2 kts | 139° |
| 2026-05-01 12:05 | 50.09108 | 14.28210 | 1211 ft | 13 kts | 224° |
| 2026-05-01 12:05 | 50.09095 | 14.28081 | 1208 ft | 13 kts | 290° |
| 2026-05-01 12:06 | 50.09122 | 14.28007 | 1210 ft | 0 kts | 306° |
| 2026-05-01 12:06 | 50.09156 | 14.27934 | 1211 ft | 36 kts | 306° |
| 2026-05-01 12:06 | 50.09450 | 14.27330 | 1208 ft | 103 kts | 307° |
| 2026-05-01 12:06 | 50.10004 | 14.26187 | 1199 ft | 156 kts | 307° |
| 2026-05-01 12:07 | 50.10712 | 14.24732 | 1560 ft | 169 kts | 308° |
| 2026-05-01 12:07 | 50.11422 | 14.23285 | 2332 ft | 167 kts | 308° |
| 2026-05-01 12:07 | 50.12130 | 14.21855 | 2977 ft | 167 kts | 309° |
| 2026-05-01 12:07 | 50.12856 | 14.20348 | 3286 ft | 183 kts | 308° |
| 2026-05-01 12:08 | 50.13664 | 14.18659 | 3486 ft | 203 kts | 307° |
| 2026-05-01 12:08 | 50.14521 | 14.16865 | 3912 ft | 209 kts | 308° |
| 2026-05-01 12:08 | 50.15404 | 14.15015 | 4398 ft | 220 kts | 308° |
| 2026-05-01 12:08 | 50.16365 | 14.13009 | 4671 ft | 243 kts | 307° |
| 2026-05-01 12:09 | 50.17419 | 14.10811 | 5056 ft | 262 kts | 307° |
| 2026-05-01 12:09 | 50.18531 | 14.08497 | 5745 ft | 269 kts | 308° |
| 2026-05-01 12:09 | 50.19665 | 14.06134 | 6459 ft | 275 kts | 309° |
| 2026-05-01 12:09 | 50.20822 | 14.03725 | 7165 ft | 280 kts | 309° |
| 2026-05-01 12:10 | 50.22110 | 14.01432 | 7855 ft | 281 kts | 322° |
| 2026-05-01 12:10 | 50.25603 | 13.98911 | 9272 ft | 279 kts | 355° |
| 2026-05-01 12:10 | 50.27538 | 13.98715 | 10002 ft | 280 kts | 1° |
| 2026-05-01 12:11 | 50.31577 | 13.98434 | 10750 ft | 311 kts | 1° |
| 2026-05-01 12:11 | 50.33802 | 13.98404 | 10995 ft | 326 kts | 8° |
| 2026-05-01 12:11 | 50.36035 | 13.99057 | 11549 ft | 328 kts | 20° |
| 2026-05-01 12:12 | 50.38145 | 14.00399 | 12202 ft | 328 kts | 28° |
| 2026-05-01 12:12 | 50.40217 | 14.01937 | 12880 ft | 330 kts | 28° |
| 2026-05-01 12:12 | 50.42298 | 14.03492 | 13552 ft | 333 kts | 28° |
| 2026-05-01 12:12 | 50.44398 | 14.05061 | 14204 ft | 335 kts | 28° |
| 2026-05-01 12:13 | 50.46510 | 14.06645 | 14785 ft | 337 kts | 28° |
| 2026-05-01 12:13 | 50.48633 | 14.08243 | 15341 ft | 340 kts | 28° |
| 2026-05-01 12:13 | 50.50778 | 14.09856 | 15886 ft | 343 kts | 28° |
| 2026-05-01 12:13 | 50.52965 | 14.11501 | 16456 ft | 345 kts | 28° |
| 2026-05-01 12:14 | 50.55173 | 14.13026 | 16990 ft | 350 kts | 22° |
| 2026-05-01 12:14 | 50.57562 | 14.13913 | 17518 ft | 356 kts | 12° |
| 2026-05-01 12:14 | 50.60019 | 14.14486 | 18059 ft | 358 kts | 12° |
| 2026-05-01 12:14 | 50.62496 | 14.15072 | 18617 ft | 361 kts | 12° |
| 2026-05-01 12:15 | 50.64983 | 14.15665 | 19102 ft | 363 kts | 12° |
| 2026-05-01 12:15 | 50.67492 | 14.16264 | 19579 ft | 365 kts | 12° |
| 2026-05-01 12:15 | 50.70009 | 14.16867 | 20059 ft | 368 kts | 12° |
| 2026-05-01 12:15 | 50.72547 | 14.17479 | 20549 ft | 369 kts | 12° |
| 2026-05-01 12:16 | 50.75094 | 14.18096 | 21055 ft | 371 kts | 12° |
| 2026-05-01 12:16 | 50.77656 | 14.18713 | 21548 ft | 374 kts | 12° |
| 2026-05-01 12:16 | 50.80232 | 14.19334 | 22010 ft | 376 kts | 12° |
| 2026-05-01 12:16 | 50.82827 | 14.19960 | 22440 ft | 379 kts | 11° |
| 2026-05-01 12:17 | 50.85443 | 14.20593 | 22848 ft | 382 kts | 11° |
| 2026-05-01 12:17 | 50.88080 | 14.21219 | 23270 ft | 385 kts | 9° |
| 2026-05-01 12:17 | 50.90776 | 14.21357 | 23698 ft | 391 kts | 359° |
| 2026-05-01 12:17 | 50.93495 | 14.20837 | 24081 ft | 395 kts | 355° |
| 2026-05-01 12:18 | 50.96221 | 14.20231 | 24427 ft | 397 kts | 355° |
| 2026-05-01 12:18 | 50.98962 | 14.19620 | 24773 ft | 399 kts | 355° |
| 2026-05-01 12:18 | 51.01713 | 14.19006 | 25109 ft | 400 kts | 355° |
| 2026-05-01 12:18 | 51.04458 | 14.18091 | 25429 ft | 406 kts | 346° |
| 2026-05-01 12:19 | 51.07083 | 14.16384 | 25753 ft | 412 kts | 335° |
| 2026-05-01 12:19 | 51.09501 | 14.13894 | 26070 ft | 418 kts | 324° |
| 2026-05-01 12:19 | 51.11716 | 14.10857 | 26379 ft | 421 kts | 322° |
| 2026-05-01 12:19 | 51.13924 | 14.07789 | 26690 ft | 422 kts | 322° |
| 2026-05-01 12:20 | 51.16143 | 14.04711 | 26999 ft | 424 kts | 322° |
| 2026-05-01 12:20 | 51.18373 | 14.01621 | 27304 ft | 425 kts | 322° |
| 2026-05-01 12:20 | 51.20609 | 13.98519 | 27607 ft | 427 kts | 322° |
| 2026-05-01 12:20 | 51.22880 | 13.95363 | 27904 ft | 428 kts | 322° |
| 2026-05-01 12:21 | 51.25125 | 13.92229 | 28192 ft | 430 kts | 322° |
| 2026-05-01 12:21 | 51.27385 | 13.89073 | 28478 ft | 431 kts | 322° |
| 2026-05-01 12:21 | 51.29645 | 13.85917 | 28753 ft | 433 kts | 322° |
| 2026-05-01 12:21 | 51.31914 | 13.82739 | 29023 ft | 434 kts | 322° |
| 2026-05-01 12:22 | 51.34190 | 13.79545 | 29284 ft | 436 kts | 322° |
| 2026-05-01 12:22 | 51.36470 | 13.76339 | 29535 ft | 437 kts | 322° |
| 2026-05-01 12:22 | 51.38756 | 13.73123 | 29790 ft | 438 kts | 322° |
| 2026-05-01 12:22 | 51.41051 | 13.69891 | 30030 ft | 440 kts | 321° |
| 2026-05-01 12:23 | 51.43349 | 13.66648 | 30264 ft | 441 kts | 321° |
| 2026-05-01 12:23 | 51.45648 | 13.63392 | 30485 ft | 442 kts | 321° |
| 2026-05-01 12:23 | 51.47958 | 13.60122 | 30707 ft | 442 kts | 321° |
| 2026-05-01 12:23 | 51.50268 | 13.56858 | 30951 ft | 442 kts | 321° |
| 2026-05-01 12:24 | 51.52568 | 13.53606 | 31177 ft | 442 kts | 321° |
| 2026-05-01 12:24 | 51.54878 | 13.50331 | 31410 ft | 442 kts | 321° |
| 2026-05-01 12:24 | 51.57177 | 13.47063 | 31653 ft | 442 kts | 321° |
| 2026-05-01 12:24 | 51.59474 | 13.43789 | 31892 ft | 441 kts | 321° |
| 2026-05-01 12:25 | 51.61768 | 13.40517 | 32134 ft | 441 kts | 321° |
| 2026-05-01 12:25 | 51.66353 | 13.33962 | 32625 ft | 440 kts | 321° |
| 2026-05-01 12:25 | 51.68638 | 13.30685 | 32866 ft | 440 kts | 321° |
| 2026-05-01 12:26 | 51.70917 | 13.27412 | 33110 ft | 439 kts | 321° |
| 2026-05-01 12:26 | 51.75478 | 13.20856 | 33579 ft | 438 kts | 321° |
| 2026-05-01 12:26 | 51.77754 | 13.17582 | 33782 ft | 439 kts | 320° |
| 2026-05-01 12:27 | 51.79964 | 13.14177 | 33992 ft | 440 kts | 314° |
| 2026-05-01 12:27 | 51.83980 | 13.06609 | 34372 ft | 440 kts | 312° |
| 2026-05-01 12:28 | 51.89877 | 12.95385 | 34401 ft | 435 kts | 312° |
| 2026-05-01 12:29 | 51.95743 | 12.84185 | 34398 ft | 434 kts | 312° |
| 2026-05-01 12:29 | 52.01601 | 12.72968 | 34401 ft | 434 kts | 312° |
| 2026-05-01 12:30 | 52.07449 | 12.61723 | 34398 ft | 434 kts | 312° |
| 2026-05-01 12:31 | 52.11341 | 12.54204 | 34396 ft | 434 kts | 312° |
| 2026-05-01 12:31 | 52.14602 | 12.47896 | 34391 ft | 435 kts | 312° |
| 2026-05-01 12:32 | 52.18488 | 12.40353 | 34393 ft | 435 kts | 311° |
| 2026-05-01 12:32 | 52.24303 | 12.29003 | 34393 ft | 435 kts | 311° |
| 2026-05-01 12:33 | 52.28176 | 12.21426 | 34389 ft | 435 kts | 311° |
| 2026-05-01 12:33 | 52.32052 | 12.13843 | 34392 ft | 435 kts | 311° |
| 2026-05-01 12:34 | 52.35917 | 12.06242 | 34396 ft | 435 kts | 311° |
| 2026-05-01 12:34 | 52.39768 | 11.98621 | 34385 ft | 435 kts | 310° |
| 2026-05-01 12:35 | 52.43627 | 11.90989 | 34381 ft | 435 kts | 311° |
| 2026-05-01 12:35 | 52.47477 | 11.83351 | 34383 ft | 435 kts | 310° |
| 2026-05-01 12:36 | 52.51322 | 11.75675 | 34384 ft | 435 kts | 310° |
| 2026-05-01 12:36 | 52.55159 | 11.67990 | 34386 ft | 435 kts | 310° |
| 2026-05-01 12:37 | 52.59000 | 11.60284 | 34386 ft | 436 kts | 310° |
| 2026-05-01 12:37 | 52.62845 | 11.52566 | 34383 ft | 436 kts | 310° |
| 2026-05-01 12:38 | 52.66715 | 11.44771 | 34382 ft | 437 kts | 310° |
| 2026-05-01 12:38 | 52.70551 | 11.37006 | 34384 ft | 437 kts | 310° |
| 2026-05-01 12:39 | 52.74379 | 11.29218 | 34387 ft | 437 kts | 310° |
| 2026-05-01 12:39 | 52.78214 | 11.21427 | 34388 ft | 437 kts | 310° |
| 2026-05-01 12:40 | 52.82047 | 11.13630 | 34378 ft | 437 kts | 310° |
| 2026-05-01 12:40 | 52.86391 | 11.06622 | 34373 ft | 437 kts | 318° |
| 2026-05-01 12:41 | 52.90893 | 10.99863 | 34371 ft | 437 kts | 319° |
| 2026-05-01 12:41 | 52.95405 | 10.93074 | 34370 ft | 438 kts | 318° |
| 2026-05-01 12:42 | 52.99914 | 10.86254 | 34372 ft | 439 kts | 318° |
| 2026-05-01 12:42 | 53.04424 | 10.79421 | 34367 ft | 439 kts | 318° |
| 2026-05-01 12:43 | 53.08943 | 10.72572 | 34370 ft | 439 kts | 318° |
| 2026-05-01 12:43 | 53.13451 | 10.65705 | 34365 ft | 440 kts | 318° |
| 2026-05-01 12:44 | 53.17959 | 10.58813 | 34367 ft | 440 kts | 317° |
| 2026-05-01 12:45 | 53.26973 | 10.44989 | 34366 ft | 440 kts | 317° |
| 2026-05-01 12:45 | 53.31505 | 10.37990 | 34372 ft | 441 kts | 317° |
| 2026-05-01 12:46 | 53.36007 | 10.31023 | 34369 ft | 441 kts | 317° |
| 2026-05-01 12:46 | 53.40515 | 10.24041 | 34364 ft | 442 kts | 317° |
| 2026-05-01 12:47 | 53.45056 | 10.16971 | 34384 ft | 450 kts | 317° |
| 2026-05-01 12:47 | 53.49682 | 10.09749 | 34384 ft | 457 kts | 317° |
| 2026-05-01 12:48 | 53.54346 | 10.02451 | 34382 ft | 460 kts | 317° |
| 2026-05-01 12:48 | 53.59016 | 9.95124 | 34378 ft | 459 kts | 317° |
| 2026-05-01 12:49 | 53.63694 | 9.87759 | 34381 ft | 460 kts | 317° |
| 2026-05-01 12:49 | 53.68362 | 9.80385 | 34372 ft | 459 kts | 317° |
| 2026-05-01 12:50 | 53.73022 | 9.72988 | 34364 ft | 460 kts | 317° |
| 2026-05-01 12:50 | 53.77723 | 9.65516 | 34369 ft | 461 kts | 317° |
| 2026-05-01 12:51 | 53.82422 | 9.58030 | 34375 ft | 467 kts | 317° |
| 2026-05-01 12:52 | 53.89533 | 9.46624 | 34370 ft | 469 kts | 316° |
| 2026-05-01 12:52 | 53.96633 | 9.35193 | 34365 ft | 470 kts | 317° |
| 2026-05-01 12:53 | 54.03756 | 9.23684 | 34364 ft | 471 kts | 317° |
| 2026-05-01 12:54 | 54.08498 | 9.15986 | 34370 ft | 471 kts | 316° |
| 2026-05-01 12:54 | 54.15594 | 9.04402 | 34381 ft | 471 kts | 316° |
| 2026-05-01 12:55 | 54.22665 | 8.92797 | 34389 ft | 469 kts | 316° |
| 2026-05-01 12:56 | 54.27368 | 8.85067 | 34389 ft | 468 kts | 316° |
| 2026-05-01 12:56 | 54.32082 | 8.77282 | 34383 ft | 468 kts | 316° |
| 2026-05-01 12:57 | 54.36757 | 8.69524 | 34376 ft | 468 kts | 316° |
| 2026-05-01 12:57 | 54.43766 | 8.57861 | 34366 ft | 468 kts | 316° |
| 2026-05-01 12:58 | 54.48428 | 8.50075 | 34374 ft | 467 kts | 316° |
| 2026-05-01 12:59 | 54.55390 | 8.38379 | 34382 ft | 466 kts | 316° |
| 2026-05-01 12:59 | 54.62339 | 8.26658 | 34373 ft | 466 kts | 316° |
| 2026-05-01 13:00 | 54.69270 | 8.14907 | 34375 ft | 465 kts | 315° |
| 2026-05-01 13:01 | 54.76179 | 8.03113 | 34369 ft | 465 kts | 315° |
| 2026-05-01 13:02 | 54.83079 | 7.91299 | 34366 ft | 465 kts | 315° |
| 2026-05-01 13:07 | 55.33789 | 7.07003 | 34349 ft | 464 kts | 316° |
| 2026-05-01 13:08 | 55.38495 | 6.99247 | 34349 ft | 463 kts | 315° |
| 2026-05-01 13:08 | 55.43186 | 6.91469 | 34347 ft | 463 kts | 315° |
| 2026-05-01 13:09 | 55.47866 | 6.83679 | 34348 ft | 463 kts | 314° |
| 2026-05-01 13:09 | 55.52544 | 6.75874 | 34348 ft | 463 kts | 314° |
| 2026-05-01 13:10 | 55.57213 | 6.68053 | 34337 ft | 463 kts | 315° |
| 2026-05-01 13:10 | 55.61886 | 6.60203 | 34334 ft | 463 kts | 314° |
| 2026-05-01 13:11 | 55.66554 | 6.52326 | 34332 ft | 464 kts | 314° |
| 2026-05-01 13:11 | 55.71219 | 6.44425 | 34324 ft | 464 kts | 314° |
| 2026-05-01 13:12 | 55.75882 | 6.36511 | 34322 ft | 464 kts | 314° |
| 2026-05-01 13:12 | 55.80541 | 6.28572 | 34321 ft | 464 kts | 314° |
| 2026-05-01 13:13 | 55.85194 | 6.20609 | 34334 ft | 464 kts | 314° |
| 2026-05-01 13:13 | 55.89847 | 6.12634 | 34325 ft | 464 kts | 314° |
| 2026-05-01 13:14 | 55.94529 | 6.04577 | 34315 ft | 465 kts | 314° |
| 2026-05-01 13:14 | 55.99171 | 5.96551 | 34313 ft | 465 kts | 313° |
| 2026-05-01 13:15 | 56.03811 | 5.88495 | 34309 ft | 465 kts | 313° |
| 2026-05-01 13:15 | 56.08448 | 5.80421 | 34308 ft | 465 kts | 313° |
| 2026-05-01 13:16 | 56.13077 | 5.72334 | 34309 ft | 465 kts | 313° |
| 2026-05-01 13:16 | 56.17703 | 5.64225 | 34322 ft | 465 kts | 313° |
| 2026-05-01 13:17 | 56.26941 | 5.47946 | 34320 ft | 465 kts | 312° |
| 2026-05-01 13:18 | 56.33848 | 5.35687 | 34316 ft | 465 kts | 312° |
| 2026-05-01 13:18 | 56.38445 | 5.27491 | 34309 ft | 464 kts | 312° |
| 2026-05-01 13:19 | 56.43038 | 5.19295 | 34305 ft | 464 kts | 312° |
| 2026-05-01 13:20 | 56.49940 | 5.06910 | 34303 ft | 464 kts | 311° |
| 2026-05-01 13:20 | 56.54302 | 4.98366 | 34300 ft | 459 kts | 302° |
| 2026-05-01 13:21 | 56.57731 | 4.88664 | 34413 ft | 456 kts | 299° |
| 2026-05-01 13:21 | 56.59426 | 4.83807 | 34520 ft | 455 kts | 299° |
| 2026-05-01 13:21 | 56.61118 | 4.78963 | 34646 ft | 454 kts | 299° |
| 2026-05-01 13:21 | 56.62806 | 4.74122 | 34763 ft | 453 kts | 299° |
| 2026-05-01 13:22 | 56.64481 | 4.69297 | 34874 ft | 452 kts | 298° |
| 2026-05-01 13:22 | 56.66154 | 4.64456 | 35015 ft | 451 kts | 298° |
| 2026-05-01 13:22 | 56.67817 | 4.59635 | 35131 ft | 450 kts | 298° |
| 2026-05-01 13:22 | 56.69480 | 4.54807 | 35243 ft | 450 kts | 298° |
| 2026-05-01 13:23 | 56.71141 | 4.49984 | 35378 ft | 449 kts | 298° |
| 2026-05-01 13:23 | 56.72798 | 4.45171 | 35491 ft | 448 kts | 298° |
| 2026-05-01 13:23 | 56.74452 | 4.40366 | 35613 ft | 448 kts | 298° |
| 2026-05-01 13:23 | 56.76101 | 4.35562 | 35743 ft | 447 kts | 298° |
| 2026-05-01 13:24 | 56.77743 | 4.30763 | 35880 ft | 446 kts | 298° |
| 2026-05-01 13:24 | 56.79378 | 4.25968 | 36005 ft | 444 kts | 298° |
| 2026-05-01 13:24 | 56.81002 | 4.21188 | 36161 ft | 442 kts | 298° |
| 2026-05-01 13:25 | 56.84240 | 4.11617 | 36254 ft | 444 kts | 298° |
| 2026-05-01 13:25 | 56.87497 | 4.01982 | 36255 ft | 447 kts | 298° |
| 2026-05-01 13:26 | 56.90787 | 3.92193 | 36248 ft | 450 kts | 297° |
| 2026-05-01 13:26 | 56.94058 | 3.82426 | 36247 ft | 450 kts | 297° |
| 2026-05-01 13:27 | 56.97323 | 3.72644 | 36246 ft | 450 kts | 297° |
| 2026-05-01 13:27 | 57.02211 | 3.57914 | 36244 ft | 450 kts | 297° |
| 2026-05-01 13:28 | 57.07360 | 3.43427 | 36260 ft | 453 kts | 301° |
| 2026-05-01 13:29 | 57.14572 | 3.24404 | 36235 ft | 453 kts | 300° |
| 2026-05-01 13:31 | 57.25134 | 2.95519 | 36238 ft | 453 kts | 299° |
| 2026-05-01 13:32 | 57.33925 | 2.71348 | 36197 ft | 454 kts | 300° |
| 2026-05-01 13:33 | 57.42936 | 2.47262 | 36207 ft | 453 kts | 300° |
| 2026-05-01 13:34 | 57.50039 | 2.27952 | 36200 ft | 453 kts | 299° |
| 2026-05-01 13:35 | 57.54759 | 2.15033 | 36198 ft | 453 kts | 300° |
| 2026-05-01 13:36 | 57.60091 | 2.00395 | 36192 ft | 453 kts | 299° |
| 2026-05-01 13:36 | 57.65372 | 1.85761 | 36199 ft | 453 kts | 299° |
| 2026-05-01 13:37 | 57.68889 | 1.76005 | 36204 ft | 452 kts | 300° |
| 2026-05-01 13:37 | 57.72394 | 1.66242 | 36191 ft | 452 kts | 299° |
| 2026-05-01 13:38 | 57.77623 | 1.51557 | 36183 ft | 452 kts | 299° |
| 2026-05-01 13:39 | 57.81098 | 1.41748 | 36167 ft | 452 kts | 299° |
| 2026-05-01 13:39 | 57.84566 | 1.31916 | 36165 ft | 452 kts | 299° |
| 2026-05-01 13:40 | 57.88029 | 1.22078 | 36165 ft | 452 kts | 299° |
| 2026-05-01 13:40 | 57.91489 | 1.12218 | 36172 ft | 452 kts | 299° |
| 2026-05-01 13:41 | 57.94941 | 1.02339 | 36178 ft | 452 kts | 299° |
| 2026-05-01 13:41 | 57.98399 | 0.92372 | 36163 ft | 451 kts | 299° |
| 2026-05-01 13:42 | 58.01818 | 0.82462 | 36156 ft | 451 kts | 298° |
| 2026-05-01 13:42 | 58.05234 | 0.72518 | 36152 ft | 451 kts | 298° |
| 2026-05-01 13:43 | 58.08649 | 0.62572 | 36148 ft | 451 kts | 298° |
| 2026-05-01 13:43 | 58.12061 | 0.52622 | 36155 ft | 451 kts | 299° |
| 2026-05-01 13:44 | 58.15463 | 0.42642 | 36139 ft | 451 kts | 298° |
| 2026-05-01 13:44 | 58.18849 | 0.32628 | 36137 ft | 451 kts | 298° |
| 2026-05-01 13:45 | 58.22220 | 0.22603 | 36149 ft | 451 kts | 298° |
| 2026-05-01 13:45 | 58.25583 | 0.12577 | 36145 ft | 450 kts | 298° |
| 2026-05-01 13:46 | 58.28970 | 0.02485 | 36139 ft | 450 kts | 298° |
| 2026-05-01 13:46 | 58.32318 | -0.07557 | 36142 ft | 450 kts | 298° |
| 2026-05-01 13:47 | 58.35656 | -0.17625 | 36136 ft | 449 kts | 298° |
| 2026-05-01 13:47 | 58.38981 | -0.27702 | 36130 ft | 449 kts | 298° |
| 2026-05-01 13:48 | 58.42302 | -0.37804 | 36130 ft | 449 kts | 298° |
| 2026-05-01 13:48 | 58.45610 | -0.47921 | 36123 ft | 449 kts | 298° |
| 2026-05-01 13:49 | 58.48917 | -0.58054 | 36133 ft | 449 kts | 297° |
| 2026-05-01 13:49 | 58.52208 | -0.68193 | 36124 ft | 448 kts | 297° |
| 2026-05-01 13:50 | 58.55484 | -0.78336 | 36116 ft | 448 kts | 297° |
| 2026-05-01 13:50 | 58.58758 | -0.88499 | 36110 ft | 448 kts | 297° |
| 2026-05-01 13:51 | 58.62020 | -0.98673 | 36112 ft | 448 kts | 297° |
| 2026-05-01 13:51 | 58.65290 | -1.08914 | 36108 ft | 447 kts | 297° |
| 2026-05-01 13:52 | 58.68533 | -1.19128 | 36102 ft | 447 kts | 297° |
| 2026-05-01 13:52 | 58.71765 | -1.29345 | 36114 ft | 447 kts | 296° |
| 2026-05-01 13:53 | 58.74991 | -1.39598 | 36106 ft | 448 kts | 296° |
| 2026-05-01 13:53 | 58.79813 | -1.55026 | 36095 ft | 448 kts | 296° |
| 2026-05-01 13:54 | 58.83026 | -1.65313 | 36089 ft | 448 kts | 296° |
| 2026-05-01 13:54 | 58.86226 | -1.75631 | 36088 ft | 448 kts | 296° |
| 2026-05-01 13:55 | 58.89414 | -1.85970 | 36084 ft | 448 kts | 296° |
| 2026-05-01 13:55 | 58.92596 | -1.96323 | 36101 ft | 448 kts | 296° |
| 2026-05-01 13:56 | 58.95778 | -2.06706 | 36091 ft | 448 kts | 295° |
| 2026-05-01 13:56 | 58.98943 | -2.17107 | 36086 ft | 448 kts | 295° |
| 2026-05-01 13:57 | 59.01584 | -2.25830 | 36104 ft | 448 kts | 295° |
| 2026-05-01 13:57 | 59.05275 | -2.38026 | 36090 ft | 447 kts | 295° |
| 2026-05-01 13:58 | 59.08416 | -2.48462 | 36087 ft | 447 kts | 295° |
| 2026-05-01 13:58 | 59.11545 | -2.58921 | 36098 ft | 447 kts | 295° |
| 2026-05-01 13:59 | 59.14659 | -2.69402 | 36090 ft | 447 kts | 294° |
| 2026-05-01 13:59 | 59.17766 | -2.79900 | 36085 ft | 447 kts | 294° |
| 2026-05-01 14:00 | 59.20867 | -2.90399 | 36083 ft | 447 kts | 294° |
| 2026-05-01 14:00 | 59.23961 | -3.00937 | 36082 ft | 447 kts | 294° |
| 2026-05-01 14:01 | 59.27047 | -3.11490 | 36081 ft | 447 kts | 294° |
| 2026-05-01 14:01 | 59.30126 | -3.22043 | 36121 ft | 447 kts | 294° |
| 2026-05-01 14:02 | 59.33188 | -3.32613 | 36091 ft | 446 kts | 294° |
| 2026-05-01 14:02 | 59.36239 | -3.43233 | 36080 ft | 447 kts | 293° |
| 2026-05-01 14:03 | 59.39306 | -3.53902 | 36078 ft | 447 kts | 294° |
| 2026-05-01 14:03 | 59.42358 | -3.64544 | 36080 ft | 447 kts | 293° |
| 2026-05-01 14:04 | 59.45388 | -3.75199 | 36080 ft | 447 kts | 293° |
| 2026-05-01 14:04 | 59.47894 | -3.84072 | 36086 ft | 447 kts | 293° |
| 2026-05-01 14:05 | 59.51422 | -3.96580 | 36083 ft | 447 kts | 293° |
| 2026-05-01 14:05 | 59.53927 | -4.05498 | 36114 ft | 447 kts | 293° |
| 2026-05-01 14:06 | 59.56927 | -4.16242 | 36103 ft | 447 kts | 292° |
| 2026-05-01 14:06 | 59.59915 | -4.26999 | 36096 ft | 447 kts | 292° |
| 2026-05-01 14:07 | 59.62900 | -4.37777 | 36093 ft | 447 kts | 292° |
| 2026-05-01 14:08 | 59.67374 | -4.54026 | 36085 ft | 446 kts | 292° |
| 2026-05-01 14:08 | 59.70338 | -4.64819 | 36097 ft | 446 kts | 292° |
| 2026-05-01 14:09 | 59.73288 | -4.75634 | 36089 ft | 446 kts | 292° |
| 2026-05-01 14:09 | 59.76214 | -4.86446 | 36079 ft | 445 kts | 292° |
| 2026-05-01 14:10 | 59.79130 | -4.97289 | 36074 ft | 445 kts | 291° |
| 2026-05-01 14:10 | 59.82037 | -5.08142 | 36094 ft | 444 kts | 291° |
| 2026-05-01 14:11 | 59.84932 | -5.18979 | 36082 ft | 443 kts | 291° |
| 2026-05-01 14:11 | 59.89258 | -5.35240 | 36087 ft | 443 kts | 291° |
| 2026-05-01 14:12 | 59.92124 | -5.46115 | 36076 ft | 443 kts | 291° |
| 2026-05-01 14:12 | 59.94983 | -5.57009 | 36065 ft | 443 kts | 291° |
| 2026-05-01 14:13 | 59.97828 | -5.67930 | 36061 ft | 443 kts | 291° |
| 2026-05-01 14:13 | 60.00672 | -5.78864 | 36060 ft | 443 kts | 291° |
| 2026-05-01 14:14 | 60.03509 | -5.89811 | 36060 ft | 443 kts | 291° |
| 2026-05-01 14:14 | 60.06355 | -6.00848 | 36093 ft | 443 kts | 290° |
| 2026-05-01 14:15 | 60.09160 | -6.11837 | 36078 ft | 443 kts | 290° |
| 2026-05-01 14:15 | 60.11965 | -6.22839 | 36067 ft | 443 kts | 290° |
| 2026-05-01 14:16 | 60.14761 | -6.33869 | 36059 ft | 443 kts | 290° |
| 2026-05-01 14:16 | 60.17552 | -6.44912 | 36057 ft | 443 kts | 290° |
| 2026-05-01 14:17 | 60.20336 | -6.55955 | 36055 ft | 443 kts | 290° |
| 2026-05-01 14:17 | 60.23104 | -6.67048 | 36055 ft | 443 kts | 289° |
| 2026-05-01 14:18 | 60.25861 | -6.78157 | 36069 ft | 443 kts | 289° |
| 2026-05-01 14:18 | 60.28162 | -6.87467 | 36061 ft | 443 kts | 289° |
| 2026-05-01 14:19 | 60.31343 | -7.00399 | 36083 ft | 442 kts | 289° |
| 2026-05-01 14:19 | 60.34072 | -7.11513 | 36079 ft | 441 kts | 289° |
| 2026-05-01 14:20 | 60.38135 | -7.28191 | 36065 ft | 441 kts | 289° |
| 2026-05-01 14:21 | 60.40824 | -7.39324 | 36059 ft | 440 kts | 289° |
| 2026-05-01 14:21 | 60.43522 | -7.50540 | 36051 ft | 440 kts | 289° |
| 2026-05-01 14:22 | 60.47519 | -7.67282 | 36049 ft | 440 kts | 288° |
| 2026-05-01 14:22 | 60.50180 | -7.78460 | 36053 ft | 440 kts | 288° |
| 2026-05-01 14:23 | 60.52819 | -7.89664 | 36071 ft | 439 kts | 288° |
| 2026-05-01 14:23 | 60.55448 | -8.00844 | 36063 ft | 438 kts | 288° |
| 2026-05-01 14:24 | 60.58059 | -8.12022 | 36057 ft | 437 kts | 288° |
| 2026-05-01 14:24 | 60.60660 | -8.23200 | 36059 ft | 437 kts | 288° |
| 2026-05-01 14:25 | 60.63251 | -8.34400 | 36047 ft | 437 kts | 288° |
| 2026-05-01 14:25 | 60.65832 | -8.45600 | 36041 ft | 437 kts | 288° |
| 2026-05-01 14:26 | 60.69681 | -8.62444 | 36036 ft | 437 kts | 288° |
| 2026-05-01 14:27 | 60.72238 | -8.73698 | 36025 ft | 436 kts | 288° |
| 2026-05-01 14:27 | 60.74781 | -8.84960 | 36021 ft | 436 kts | 287° |
| 2026-05-01 14:28 | 60.78597 | -9.01940 | 36033 ft | 436 kts | 288° |
| 2026-05-01 14:28 | 60.81110 | -9.13226 | 36019 ft | 436 kts | 287° |
| 2026-05-01 14:29 | 60.83617 | -9.24545 | 36019 ft | 436 kts | 287° |
| 2026-05-01 14:30 | 60.88604 | -9.47192 | 36012 ft | 435 kts | 287° |
| 2026-05-01 14:31 | 60.92315 | -9.64224 | 36008 ft | 435 kts | 287° |
| 2026-05-01 14:31 | 60.94779 | -9.75599 | 36013 ft | 436 kts | 287° |
| 2026-05-01 14:32 | 60.97237 | -9.86995 | 36010 ft | 436 kts | 287° |
| 2026-05-01 14:32 | 60.99677 | -9.98408 | 36010 ft | 435 kts | 288° |
| 2026-05-01 14:33 | 61.02594 | -10.09441 | 36007 ft | 439 kts | 292° |
| 2026-05-01 14:33 | 61.05592 | -10.20404 | 36006 ft | 439 kts | 292° |
| 2026-05-01 14:34 | 61.08581 | -10.31392 | 36003 ft | 439 kts | 292° |
| 2026-05-01 14:34 | 61.11579 | -10.42477 | 35999 ft | 439 kts | 292° |
| 2026-05-01 14:35 | 61.14541 | -10.53503 | 36010 ft | 438 kts | 292° |
| 2026-05-01 14:35 | 61.17490 | -10.64552 | 35994 ft | 438 kts | 292° |
| 2026-05-01 14:36 | 61.20434 | -10.75635 | 35997 ft | 438 kts | 292° |
| 2026-05-01 14:36 | 61.23368 | -10.86723 | 35990 ft | 438 kts | 292° |
| 2026-05-01 14:37 | 61.26299 | -10.97826 | 35992 ft | 438 kts | 292° |
| 2026-05-01 14:37 | 61.29223 | -11.08944 | 35987 ft | 438 kts | 292° |
| 2026-05-01 14:38 | 61.32124 | -11.20089 | 35988 ft | 438 kts | 292° |
| 2026-05-01 14:38 | 61.34532 | -11.29379 | 36000 ft | 438 kts | 292° |
| 2026-05-01 14:39 | 61.37439 | -11.40625 | 36002 ft | 438 kts | 292° |
| 2026-05-01 14:39 | 61.40310 | -11.51812 | 36003 ft | 437 kts | 292° |
| 2026-05-01 14:40 | 61.43176 | -11.63006 | 36037 ft | 437 kts | 292° |
| 2026-05-01 14:40 | 61.46032 | -11.74202 | 36000 ft | 436 kts | 292° |
| 2026-05-01 14:41 | 61.48870 | -11.85408 | 35999 ft | 436 kts | 292° |
| 2026-05-01 14:41 | 61.51691 | -11.96635 | 36002 ft | 436 kts | 292° |
| 2026-05-01 14:42 | 61.54508 | -12.07876 | 36008 ft | 436 kts | 292° |
| 2026-05-01 14:42 | 61.57331 | -12.19160 | 35985 ft | 437 kts | 292° |
| 2026-05-01 14:43 | 61.60145 | -12.30505 | 35980 ft | 438 kts | 292° |
| 2026-05-01 14:43 | 61.62950 | -12.41878 | 35985 ft | 439 kts | 292° |
| 2026-05-01 14:44 | 61.65751 | -12.53296 | 36024 ft | 439 kts | 292° |
| 2026-05-01 14:44 | 61.69943 | -12.70459 | 36010 ft | 439 kts | 292° |
| 2026-05-01 14:45 | 61.74111 | -12.87683 | 36005 ft | 440 kts | 292° |
| 2026-05-01 14:46 | 61.76902 | -12.99255 | 36023 ft | 439 kts | 292° |
| 2026-05-01 14:46 | 61.81026 | -13.16546 | 36014 ft | 439 kts | 292° |
| 2026-05-01 14:47 | 61.83772 | -13.28084 | 36015 ft | 439 kts | 292° |
| 2026-05-01 14:48 | 61.87860 | -13.45421 | 36020 ft | 438 kts | 292° |
| 2026-05-01 14:48 | 61.91901 | -13.62706 | 36003 ft | 436 kts | 292° |
| 2026-05-01 14:49 | 61.97224 | -13.85722 | 35967 ft | 426 kts | 292° |
| 2026-05-01 14:50 | 62.02441 | -14.08432 | 35965 ft | 430 kts | 292° |
| 2026-05-01 14:51 | 62.06374 | -14.25695 | 35970 ft | 433 kts | 291° |
| 2026-05-01 14:52 | 62.10288 | -14.43107 | 36028 ft | 434 kts | 291° |
| 2026-05-01 14:53 | 62.14212 | -14.60671 | 36015 ft | 435 kts | 291° |
| 2026-05-01 14:53 | 62.16808 | -14.72345 | 36012 ft | 435 kts | 292° |
| 2026-05-01 14:54 | 62.19392 | -14.84048 | 36011 ft | 434 kts | 291° |
| 2026-05-01 14:54 | 62.21966 | -14.95761 | 36012 ft | 435 kts | 291° |
| 2026-05-01 14:55 | 62.24523 | -15.07497 | 36010 ft | 435 kts | 291° |
| 2026-05-01 14:55 | 62.27072 | -15.19260 | 36011 ft | 435 kts | 291° |
| 2026-05-01 14:56 | 62.29622 | -15.31044 | 36035 ft | 435 kts | 291° |
| 2026-05-01 14:56 | 62.32154 | -15.42824 | 35999 ft | 433 kts | 291° |
| 2026-05-01 14:57 | 62.34671 | -15.54623 | 36004 ft | 434 kts | 291° |
| 2026-05-01 14:57 | 62.38433 | -15.72385 | 36011 ft | 435 kts | 291° |
| 2026-05-01 14:58 | 62.40934 | -15.84270 | 36013 ft | 435 kts | 291° |
| 2026-05-01 14:58 | 62.43423 | -15.96176 | 36015 ft | 435 kts | 291° |
| 2026-05-01 14:59 | 62.45901 | -16.08111 | 36025 ft | 435 kts | 291° |
| 2026-05-01 14:59 | 62.48389 | -16.20124 | 36022 ft | 435 kts | 291° |
| 2026-05-01 15:00 | 62.52069 | -16.38040 | 36021 ft | 433 kts | 291° |
| 2026-05-01 15:01 | 62.54505 | -16.49977 | 36022 ft | 434 kts | 291° |
| 2026-05-01 15:01 | 62.56933 | -16.61942 | 36024 ft | 434 kts | 291° |
| 2026-05-01 15:02 | 62.59353 | -16.73932 | 36032 ft | 434 kts | 291° |
| 2026-05-01 15:02 | 62.61759 | -16.85932 | 36029 ft | 433 kts | 290° |
| 2026-05-01 15:03 | 62.64147 | -16.97959 | 36028 ft | 434 kts | 290° |
| 2026-05-01 15:03 | 62.66522 | -17.10013 | 36032 ft | 434 kts | 290° |
| 2026-05-01 15:04 | 62.68898 | -17.22095 | 36080 ft | 434 kts | 290° |
| 2026-05-01 15:04 | 62.71267 | -17.34158 | 36007 ft | 432 kts | 290° |
| 2026-05-01 15:05 | 62.73612 | -17.46224 | 36022 ft | 432 kts | 290° |
| 2026-05-01 15:05 | 62.75962 | -17.58395 | 36033 ft | 433 kts | 290° |
| 2026-05-01 15:06 | 62.78295 | -17.70519 | 36035 ft | 433 kts | 290° |
| 2026-05-01 15:06 | 62.80618 | -17.82667 | 36041 ft | 433 kts | 290° |
| 2026-05-01 15:07 | 62.82927 | -17.94850 | 36051 ft | 434 kts | 290° |
| 2026-05-01 15:07 | 62.85232 | -18.07047 | 36049 ft | 434 kts | 290° |
| 2026-05-01 15:08 | 62.87523 | -18.19269 | 36085 ft | 434 kts | 290° |
| 2026-05-01 15:08 | 62.89793 | -18.31517 | 36056 ft | 433 kts | 290° |
| 2026-05-01 15:09 | 62.92058 | -18.43752 | 36054 ft | 433 kts | 290° |
| 2026-05-01 15:09 | 62.94320 | -18.56010 | 36055 ft | 433 kts | 290° |
| 2026-05-01 15:10 | 62.96567 | -18.68296 | 36064 ft | 433 kts | 290° |
| 2026-05-01 15:10 | 62.98702 | -18.78355 | 36056 ft | 436 kts | 301° |
| 2026-05-01 15:10 | 63.00464 | -18.83795 | 36060 ft | 437 kts | 303° |
| 2026-05-01 15:11 | 63.05832 | -19.00076 | 36064 ft | 438 kts | 303° |
| 2026-05-01 15:12 | 63.09396 | -19.10972 | 36061 ft | 437 kts | 302° |
| 2026-05-01 15:12 | 63.14690 | -19.27337 | 36057 ft | 436 kts | 302° |
| 2026-05-01 15:14 | 63.23486 | -19.54701 | 36073 ft | 436 kts | 302° |
| 2026-05-01 15:14 | 63.28717 | -19.71185 | 36074 ft | 435 kts | 302° |
| 2026-05-01 15:15 | 63.35584 | -19.92972 | 34931 ft | 422 kts | 302° |
| 2026-05-01 15:16 | 63.38936 | -20.03667 | 33574 ft | 419 kts | 302° |
| 2026-05-01 15:16 | 63.42272 | -20.14370 | 32089 ft | 416 kts | 302° |
| 2026-05-01 15:17 | 63.45555 | -20.24952 | 30689 ft | 413 kts | 302° |
| 2026-05-01 15:18 | 63.50411 | -20.40645 | 28243 ft | 401 kts | 302° |
| 2026-05-01 15:18 | 63.51978 | -20.45760 | 27386 ft | 397 kts | 302° |
| 2026-05-01 15:19 | 63.56130 | -20.61228 | 24850 ft | 377 kts | 286° |
| 2026-05-01 15:19 | 63.57515 | -20.72432 | 23201 ft | 368 kts | 285° |
| 2026-05-01 15:19 | 63.58187 | -20.77943 | 22295 ft | 364 kts | 285° |
| 2026-05-01 15:20 | 63.59508 | -20.88798 | 20533 ft | 357 kts | 286° |
| 2026-05-01 15:20 | 63.60164 | -20.94165 | 19690 ft | 355 kts | 286° |
| 2026-05-01 15:20 | 63.60813 | -20.99498 | 18872 ft | 353 kts | 286° |
| 2026-05-01 15:21 | 63.61452 | -21.04803 | 18024 ft | 351 kts | 286° |
| 2026-05-01 15:21 | 63.62080 | -21.10070 | 17117 ft | 348 kts | 286° |
| 2026-05-01 15:21 | 63.62705 | -21.15319 | 16294 ft | 344 kts | 286° |
| 2026-05-01 15:21 | 63.63315 | -21.20421 | 15595 ft | 331 kts | 286° |
| 2026-05-01 15:22 | 63.64455 | -21.29967 | 14525 ft | 302 kts | 286° |
| 2026-05-01 15:22 | 63.64984 | -21.34449 | 14002 ft | 291 kts | 286° |
| 2026-05-01 15:22 | 63.65498 | -21.38839 | 13424 ft | 282 kts | 286° |
| 2026-05-01 15:23 | 63.65986 | -21.43045 | 12861 ft | 273 kts | 286° |
| 2026-05-01 15:23 | 63.66456 | -21.47126 | 12294 ft | 266 kts | 286° |
| 2026-05-01 15:23 | 63.66919 | -21.51119 | 11756 ft | 261 kts | 287° |
| 2026-05-01 15:23 | 63.67378 | -21.55058 | 11218 ft | 259 kts | 287° |
| 2026-05-01 15:24 | 63.67838 | -21.58993 | 10701 ft | 262 kts | 287° |
| 2026-05-01 15:24 | 63.68305 | -21.62991 | 10173 ft | 266 kts | 287° |
| 2026-05-01 15:24 | 63.68777 | -21.67046 | 9614 ft | 270 kts | 287° |
| 2026-05-01 15:24 | 63.69254 | -21.71159 | 9038 ft | 273 kts | 287° |
| 2026-05-01 15:25 | 63.69733 | -21.75313 | 8478 ft | 275 kts | 286° |
| 2026-05-01 15:25 | 63.70212 | -21.79502 | 7918 ft | 277 kts | 286° |
| 2026-05-01 15:25 | 63.70687 | -21.83672 | 7373 ft | 269 kts | 286° |
| 2026-05-01 15:25 | 63.71136 | -21.87649 | 7021 ft | 255 kts | 286° |
| 2026-05-01 15:26 | 63.71568 | -21.91482 | 6693 ft | 251 kts | 286° |
| 2026-05-01 15:26 | 63.71996 | -21.95288 | 6352 ft | 250 kts | 286° |
| 2026-05-01 15:26 | 63.72424 | -21.99098 | 6008 ft | 250 kts | 286° |
| 2026-05-01 15:26 | 63.72850 | -22.02893 | 5658 ft | 249 kts | 286° |
| 2026-05-01 15:27 | 63.73274 | -22.06667 | 5319 ft | 247 kts | 286° |
| 2026-05-01 15:27 | 63.73695 | -22.10430 | 4977 ft | 247 kts | 286° |
| 2026-05-01 15:27 | 63.74115 | -22.14183 | 4621 ft | 246 kts | 287° |
| 2026-05-01 15:28 | 63.74911 | -22.21344 | 3982 ft | 223 kts | 287° |
| 2026-05-01 15:28 | 63.75267 | -22.24606 | 3832 ft | 205 kts | 288° |
| 2026-05-01 15:28 | 63.75601 | -22.27656 | 3703 ft | 196 kts | 288° |
| 2026-05-01 15:29 | 63.76250 | -22.33543 | 3438 ft | 190 kts | 288° |
| 2026-05-01 15:29 | 63.76566 | -22.36397 | 3310 ft | 189 kts | 288° |
| 2026-05-01 15:29 | 63.77402 | -22.42024 | 3035 ft | 187 kts | 294° |
| 2026-05-01 15:30 | 63.78296 | -22.47532 | 2758 ft | 183 kts | 294° |
| 2026-05-01 15:31 | 63.79895 | -22.57346 | 2503 ft | 158 kts | 300° |
| 2026-05-01 15:31 | 63.81498 | -22.60368 | 2507 ft | 155 kts | 345° |
| 2026-05-01 15:32 | 63.83651 | -22.60557 | 2512 ft | 155 kts | 357° |
| 2026-05-01 15:32 | 63.85813 | -22.60553 | 2334 ft | 153 kts | 357° |
| 2026-05-01 15:33 | 63.88687 | -22.60540 | 1809 ft | 131 kts | 357° |
| 2026-05-01 15:34 | 63.91406 | -22.60544 | 1212 ft | 130 kts | 358° |